Time;durP1;ratioP1;P1;durP2;ratioP2;P2;SDS_P1;SDS_P2;PMS_P1;PMS_P2;Temp;Humidity;BMP_temperature;BMP_pressure;BME280_temperature;BME280_humidity;BME280_pressure;Samples;Min_cycle;Max_cycle;Signal;HPM_P1;HPM_P2
2022/08/03 00:01:38;;;;;;;6.68;3.53;;;22.40;99.90;;;;;;5078681;28;20107;-61
2022/08/03 00:04:05;;;;;;;8.50;3.90;;;22.40;99.90;;;;;;5078004;28;20020;-59
2022/08/03 00:06:31;;;;;;;8.80;4.53;;;22.40;99.90;;;;;;5078575;28;20055;-59
2022/08/03 00:08:57;;;;;;;8.65;3.80;;;22.10;99.90;;;;;;5077889;28;20103;-60
2022/08/03 00:11:23;;;;;;;8.55;4.07;;;22.00;99.90;;;;;;5078554;28;20064;-60
2022/08/03 00:13:49;;;;;;;9.20;3.83;;;22.00;99.90;;;;;;5078495;28;20400;-60
2022/08/03 00:16:15;;;;;;;7.28;3.67;;;22.00;99.90;;;;;;5078425;28;20075;-60
2022/08/03 00:18:41;;;;;;;6.63;3.33;;;22.00;99.90;;;;;;5078315;28;20032;-61
2022/08/03 00:21:07;;;;;;;10.85;4.32;;;22.00;99.90;;;;;;5077341;28;20029;-61
2022/08/03 00:23:33;;;;;;;13.93;4.38;;;22.10;99.90;;;;;;5078269;28;20028;-61
2022/08/03 00:25:59;;;;;;;9.32;4.53;;;22.10;99.90;;;;;;5078547;28;20419;-60
2022/08/03 00:28:25;;;;;;;9.75;4.50;;;22.20;99.90;;;;;;5078547;28;20029;-60
2022/08/03 00:30:51;;;;;;;10.65;4.78;;;22.10;99.90;;;;;;5078187;28;20300;-61
2022/08/03 00:33:18;;;;;;;8.38;4.70;;;22.10;99.90;;;;;;5078348;28;20407;-60
2022/08/03 00:35:44;;;;;;;8.90;4.15;;;22.10;99.90;;;;;;5078101;28;20033;-60
2022/08/03 00:38:09;;;;;;;9.20;3.58;;;22.10;99.90;;;;;;5078400;28;20035;-60
2022/08/03 00:40:35;;;;;;;6.10;3.00;;;22.10;99.90;;;;;;5077914;28;20031;-60
2022/08/03 00:43:03;;;;;;;7.57;2.38;;;22.10;99.90;;;;;;5077940;28;20048;-60
2022/08/03 00:45:35;;;;;;;10.68;3.00;;;22.00;99.90;;;;;;5078094;28;20419;-60
2022/08/03 00:48:02;;;;;;;6.47;2.50;;;22.00;99.90;;;;;;5078407;28;20024;-60
2022/08/03 00:50:30;;;;;;;6.90;2.47;;;21.90;99.90;;;;;;5077996;28;20338;-60
2022/08/03 00:52:57;;;;;;;6.80;2.60;;;21.70;99.90;;;;;;5077705;28;20396;-60
2022/08/03 00:55:24;;;;;;;5.40;2.28;;;21.70;99.90;;;;;;5076868;28;20025;-60
2022/08/03 00:57:51;;;;;;;5.30;2.38;;;21.70;99.90;;;;;;5077351;28;20059;-60
2022/08/03 01:00:20;;;;;;;5.32;2.70;;;21.70;99.90;;;;;;5077534;28;20112;-60
2022/08/03 01:02:46;;;;;;;5.53;2.78;;;21.70;99.90;;;;;;5077518;28;20032;-60
2022/08/03 01:05:12;;;;;;;8.15;2.80;;;21.70;99.90;;;;;;5076650;28;20044;-60
2022/08/03 01:08:03;;;;;;;6.93;2.35;;;21.70;99.90;;;;;;5076834;28;20035;-60
2022/08/03 01:10:56;;;;;;;6.68;2.45;;;21.60;99.90;;;;;;5077406;28;20028;-60
2022/08/03 01:13:35;;;;;;;6.50;2.60;;;21.70;99.90;;;;;;5077363;28;20044;-60
2022/08/03 01:16:22;;;;;;;9.43;2.53;;;21.60;99.90;;;;;;5077420;28;20048;-60
2022/08/03 01:19:01;;;;;;;8.13;2.65;;;21.70;99.90;;;;;;5076513;28;20032;-60
2022/08/03 01:21:32;;;;;;;4.43;2.50;;;21.70;99.90;;;;;;5076583;28;20029;-60
2022/08/03 01:24:04;;;;;;;4.47;2.55;;;21.60;99.90;;;;;;5077304;28;20044;-60
2022/08/03 01:26:36;;;;;;;7.90;2.55;;;21.60;99.90;;;;;;5077339;28;20067;-61
2022/08/03 01:29:59;;;;;;;5.45;2.15;;;21.50;99.90;;;;;;5076325;28;20036;-60
2022/08/03 01:32:47;;;;;;;5.20;2.45;;;21.50;99.90;;;;;;5055591;28;20044;-60
2022/08/03 01:35:16;;;;;;;8.85;2.60;;;21.40;99.90;;;;;;5055626;28;20436;-60
2022/08/03 01:37:51;;;;;;;5.57;2.15;;;21.40;99.90;;;;;;5069253;28;20056;-61
2022/08/03 01:40:20;;;;;;;3.50;2.10;;;21.40;99.90;;;;;;5076192;28;20035;-61
2022/08/03 01:42:48;;;;;;;4.70;2.15;;;21.40;99.90;;;;;;5077811;28;20033;-60
2022/08/03 01:45:18;;;;;;;4.68;1.90;;;21.30;99.90;;;;;;5076931;28;20039;-60
2022/08/03 01:47:46;;;;;;;7.28;2.00;;;21.20;99.90;;;;;;5077009;28;20028;-59
2022/08/03 01:50:13;;;;;;;2.63;1.65;;;21.20;99.90;;;;;;5077029;28;20214;-60
2022/08/03 01:52:41;;;;;;;6.03;1.83;;;21.10;99.90;;;;;;5076085;28;20051;-59
2022/08/03 01:55:08;;;;;;;4.60;1.70;;;21.10;99.90;;;;;;5076845;28;20028;-60
2022/08/03 01:57:37;;;;;;;6.40;2.00;;;21.10;99.90;;;;;;5076639;28;20053;-60
2022/08/03 02:00:03;;;;;;;3.13;1.88;;;21.10;99.90;;;;;;5059273;28;20124;-60
2022/08/03 02:02:39;;;;;;;6.25;1.95;;;21.00;99.90;;;;;;5077128;28;20029;-60
2022/08/03 02:05:07;;;;;;;6.95;1.90;;;21.00;99.90;;;;;;5076814;28;20040;-60
2022/08/03 02:07:34;;;;;;;4.82;1.77;;;21.00;99.90;;;;;;5076758;28;20041;-61
2022/08/03 02:10:03;;;;;;;4.18;1.88;;;20.90;99.90;;;;;;5076657;28;20028;-60
2022/08/03 02:12:31;;;;;;;6.70;1.50;;;20.70;99.90;;;;;;5076768;28;20044;-60
2022/08/03 02:14:59;;;;;;;3.67;1.33;;;20.80;99.90;;;;;;5076623;28;20304;-61
2022/08/03 02:17:27;;;;;;;3.97;1.50;;;20.70;99.90;;;;;;5076628;28;20090;-60
2022/08/03 02:19:55;;;;;;;2.78;1.60;;;20.70;99.90;;;;;;5075843;28;20383;-61
2022/08/03 02:22:23;;;;;;;3.95;1.60;;;20.60;99.90;;;;;;5076561;28;20385;-60
2022/08/03 02:24:49;;;;;;;5.63;1.77;;;20.60;99.90;;;;;;5076556;28;20458;-61
2022/08/03 02:27:24;;;;;;;5.18;1.83;;;20.60;99.90;;;;;;5075898;28;20102;-60
2022/08/03 02:29:57;;;;;;;3.08;1.40;;;20.70;99.90;;;;;;5075936;28;20300;-61
2022/08/03 02:32:30;;;;;;;4.57;1.40;;;20.70;99.90;;;;;;5076419;28;20039;-60
2022/08/03 02:34:58;;;;;;;7.32;1.90;;;20.70;99.90;;;;;;5075755;28;20052;-60
2022/08/03 02:37:27;;;;;;;5.93;1.60;;;20.60;99.90;;;;;;5076302;28;20024;-60
2022/08/03 02:39:59;;;;;;;6.28;1.40;;;20.60;99.90;;;;;;5076274;28;20036;-60
2022/08/03 02:42:27;;;;;;;5.97;1.60;;;20.70;99.90;;;;;;5076462;28;20032;-60
2022/08/03 02:44:56;;;;;;;7.03;1.73;;;20.70;99.90;;;;;;5078832;28;20028;-60
2022/08/03 02:47:22;;;;;;;4.30;1.50;;;20.60;99.90;;;;;;5079974;28;20041;-60
2022/08/03 02:49:51;;;;;;;3.88;1.48;;;20.50;99.90;;;;;;5080040;28;20044;-61
2022/08/03 02:52:22;;;;;;;7.45;1.40;;;20.60;99.90;;;;;;5079973;28;20029;-60
2022/08/03 02:54:52;;;;;;;7.68;1.75;;;20.60;99.90;;;;;;5079965;28;20119;-60
2022/08/03 02:57:19;;;;;;;6.10;1.50;;;20.60;99.90;;;;;;5079646;28;20084;-60
2022/08/03 02:59:46;;;;;;;6.45;1.38;;;20.60;99.90;;;;;;5079871;28;20347;-60
2022/08/03 03:02:14;;;;;;;5.25;1.60;;;20.60;99.90;;;;;;5079886;28;20042;-60
2022/08/03 03:04:41;;;;;;;3.13;1.20;;;20.40;99.90;;;;;;5079790;28;20428;-60
2022/08/03 03:07:10;;;;;;;6.25;1.58;;;20.40;99.90;;;;;;5079622;28;20032;-60
2022/08/03 03:09:35;;;;;;;7.75;1.67;;;20.50;99.90;;;;;;5078982;28;20316;-60
2022/08/03 03:12:03;;;;;;;5.80;1.50;;;20.40;99.90;;;;;;5079663;28;20047;-60
2022/08/03 03:14:29;;;;;;;6.25;1.40;;;20.40;99.90;;;;;;5062363;28;20086;-60
2022/08/03 03:16:56;;;;;;;5.25;1.50;;;20.40;99.90;;;;;;5079387;28;20070;-60
2022/08/03 03:19:23;;;;;;;5.55;1.42;;;20.40;99.90;;;;;;5079490;28;20109;-60
2022/08/03 03:21:49;;;;;;;5.35;1.55;;;20.30;99.90;;;;;;5078631;28;20408;-60
2022/08/03 03:24:16;;;;;;;6.65;1.80;;;20.30;99.90;;;;;;5079435;28;20438;-60
2022/08/03 03:26:42;;;;;;;3.45;1.20;;;20.30;99.90;;;;;;5079679;28;20393;-60
2022/08/03 03:29:08;;;;;;;5.68;1.67;;;20.20;99.90;;;;;;5079278;28;20040;-60
2022/08/03 03:31:35;;;;;;;5.82;1.45;;;20.20;99.90;;;;;;5079261;28;20029;-59
2022/08/03 03:34:02;;;;;;;7.07;1.60;;;20.10;99.90;;;;;;5079186;28;20296;-60
2022/08/03 03:36:28;;;;;;;4.88;1.35;;;20.10;99.90;;;;;;5079443;28;20368;-60
2022/08/03 03:38:53;;;;;;;4.45;1.70;;;20.10;99.90;;;;;;5078383;28;20033;-60
2022/08/03 03:41:19;;;;;;;6.47;1.55;;;20.10;99.90;;;;;;5079281;28;20043;-60
2022/08/03 03:43:45;;;;;;;6.32;1.92;;;20.20;99.90;;;;;;5079116;28;20024;-60
2022/08/03 03:46:12;;;;;;;5.10;2.00;;;20.20;99.90;;;;;;5079311;28;20108;-60
2022/08/03 03:48:38;;;;;;;6.78;1.70;;;20.20;99.90;;;;;;5079358;28;20033;-60
2022/08/03 03:51:05;;;;;;;5.75;1.75;;;20.10;99.90;;;;;;5078889;28;20037;-60
2022/08/03 03:53:31;;;;;;;10.15;1.80;;;20.00;99.90;;;;;;5078834;28;20054;-60
2022/08/03 03:55:57;;;;;;;5.97;1.50;;;19.90;99.90;;;;;;5078705;28;20036;-60
2022/08/03 03:58:23;;;;;;;5.10;1.48;;;20.10;99.90;;;;;;5078512;28;20063;-60
2022/08/03 04:00:49;;;;;;;5.03;1.50;;;20.10;99.90;;;;;;5078658;28;20359;-60
2022/08/03 04:03:15;;;;;;;5.47;1.90;;;20.20;99.90;;;;;;5078633;28;20032;-60
2022/08/03 04:11:30;;;;;;;3.95;1.30;;;19.80;99.90;;;;;;5078483;28;20036;-59
2022/08/03 04:14:28;;;;;;;4.60;1.50;;;19.70;99.90;;;;;;5078313;28;20399;-58
2022/08/03 04:17:03;;;;;;;6.20;1.55;;;19.70;99.90;;;;;;5078232;28;20381;-60
2022/08/03 04:19:34;;;;;;;7.80;1.90;;;19.80;99.90;;;;;;5078209;28;20292;-58
2022/08/03 04:22:05;;;;;;;4.63;1.48;;;19.70;99.90;;;;;;5077622;28;20288;-59
2022/08/03 04:24:43;;;;;;;6.18;1.48;;;19.70;99.90;;;;;;5078400;28;20035;-58
2022/08/03 04:27:12;;;;;;;5.05;1.35;;;19.80;99.90;;;;;;5078019;28;20063;-58
2022/08/03 04:29:42;;;;;;;7.55;2.20;;;19.80;99.90;;;;;;5078301;28;20028;-59
2022/08/03 04:32:10;;;;;;;8.90;1.65;;;19.80;99.90;;;;;;5078706;28;20058;-59
2022/08/03 04:34:36;;;;;;;6.15;1.33;;;19.60;99.90;;;;;;5060562;28;20089;-59
2022/08/03 04:37:08;;;;;;;4.70;1.30;;;19.70;99.90;;;;;;5077865;28;20036;-59
2022/08/03 04:39:35;;;;;;;5.18;1.55;;;19.70;99.90;;;;;;5077965;28;20063;-59
2022/08/03 04:42:05;;;;;;;7.45;1.80;;;19.80;99.90;;;;;;5078115;28;20297;-58
2022/08/03 04:44:36;;;;;;;7.07;1.70;;;19.80;99.90;;;;;;5077839;28;20300;-58
2022/08/03 04:47:05;;;;;;;5.40;1.45;;;19.80;99.90;;;;;;5078000;28;20040;-59
2022/08/03 04:49:31;;;;;;;4.65;1.42;;;19.70;99.90;;;;;;5077842;28;20020;-59
2022/08/03 04:51:57;;;;;;;4.85;1.52;;;19.70;99.90;;;;;;5077782;28;20033;-59
2022/08/03 04:54:23;;;;;;;4.95;1.50;;;19.70;99.90;;;;;;5077671;28;20016;-59
2022/08/03 04:56:49;;;;;;;5.47;1.38;;;19.70;99.90;;;;;;5077372;28;20289;-57
2022/08/03 04:59:16;;;;;;;12.88;2.20;;;19.60;99.90;;;;;;5077567;28;20048;-58
2022/08/03 05:01:42;;;;;;;8.57;1.70;;;19.60;99.90;;;;;;5078118;28;20067;-58
2022/08/03 05:04:09;;;;;;;5.35;1.42;;;19.70;99.90;;;;;;5077458;28;20039;-58
2022/08/03 05:06:34;;;;;;;4.10;1.65;;;19.80;99.90;;;;;;5077251;28;20343;-58
2022/08/03 05:09:00;;;;;;;6.30;1.58;;;19.90;99.90;;;;;;5077397;28;20032;-58
2022/08/03 05:11:26;;;;;;;4.63;1.45;;;19.90;99.90;;;;;;5077356;28;20036;-59
2022/08/03 05:13:52;;;;;;;4.47;1.50;;;20.10;99.90;;;;;;5077351;28;20120;-59
2022/08/03 05:16:19;;;;;;;6.65;1.95;;;20.00;99.90;;;;;;5077273;28;20047;-58
2022/08/03 05:18:45;;;;;;;7.55;1.67;;;20.00;99.90;;;;;;5077188;28;20033;-58
2022/08/03 05:21:13;;;;;;;6.60;1.92;;;20.10;99.90;;;;;;5077275;28;20113;-58
2022/08/03 05:23:40;;;;;;;5.68;1.63;;;20.20;99.90;;;;;;5077279;28;20047;-58
2022/08/03 05:26:06;;;;;;;9.68;1.70;;;20.20;99.90;;;;;;5076476;28;20024;-59
2022/08/03 05:28:32;;;;;;;10.25;2.00;;;20.10;99.90;;;;;;5077221;28;20028;-59
2022/08/03 05:30:58;;;;;;;7.30;1.80;;;20.00;99.90;;;;;;5059986;28;20068;-59
2022/08/03 05:33:23;;;;;;;7.10;1.55;;;20.00;99.90;;;;;;5077393;28;20103;-58
2022/08/03 05:35:49;;;;;;;7.80;1.85;;;20.00;99.90;;;;;;5077066;28;20048;-58
2022/08/03 05:38:15;;;;;;;5.60;1.58;;;20.10;99.90;;;;;;5077014;28;20090;-58
2022/08/03 05:40:41;;;;;;;5.00;1.45;;;20.20;99.90;;;;;;5076997;28;20024;-58
2022/08/03 05:43:07;;;;;;;9.68;1.58;;;20.40;99.90;;;;;;5076995;28;20025;-58
2022/08/03 05:45:33;;;;;;;6.25;1.60;;;20.30;99.90;;;;;;5076996;28;20037;-60
2022/08/03 05:47:59;;;;;;;4.30;1.33;;;20.40;99.90;;;;;;5076921;28;20090;-58
2022/08/03 05:50:25;;;;;;;6.57;1.80;;;20.50;99.90;;;;;;5076857;28;20408;-59
2022/08/03 05:52:53;;;;;;;9.57;1.40;;;20.50;99.90;;;;;;5076911;28;20042;-58
2022/08/03 05:55:19;;;;;;;7.43;1.95;;;20.60;99.90;;;;;;5076066;28;20420;-58
2022/08/03 05:57:46;;;;;;;7.45;1.40;;;20.70;99.90;;;;;;5076822;28;20128;-59
2022/08/03 06:00:13;;;;;;;13.02;1.63;;;20.70;99.90;;;;;;5076762;28;20036;-58
2022/08/03 06:02:39;;;;;;;7.75;1.92;;;20.70;99.90;;;;;;5076774;28;20036;-58
2022/08/03 06:05:06;;;;;;;7.65;1.80;;;20.70;99.90;;;;;;5076120;28;20106;-59
2022/08/03 06:07:32;;;;;;;12.02;1.90;;;20.90;99.90;;;;;;5076758;28;20037;-59
2022/08/03 06:09:59;;;;;;;8.82;1.48;;;20.90;99.90;;;;;;5076621;28;20392;-59
2022/08/03 06:12:25;;;;;;;10.38;1.70;;;20.90;99.90;;;;;;5076626;28;20040;-61
2022/08/03 06:14:51;;;;;;;4.63;1.33;;;21.10;99.90;;;;;;5076649;28;20316;-59
2022/08/03 06:17:16;;;;;;;10.48;1.40;;;21.10;99.90;;;;;;5076529;28;20032;-58
2022/08/03 06:19:42;;;;;;;5.95;1.52;;;21.20;99.90;;;;;;5079231;28;20044;-60
2022/08/03 06:22:08;;;;;;;7.10;1.63;;;21.30;99.90;;;;;;5080600;28;20054;-59
2022/08/03 06:24:34;;;;;;;6.97;1.52;;;21.40;99.90;;;;;;5079885;28;20094;-60
2022/08/03 06:26:59;;;;;;;7.63;1.40;;;21.40;99.90;;;;;;5080092;28;20392;-60
2022/08/03 06:29:25;;;;;;;7.20;1.85;;;21.40;99.90;;;;;;5080766;28;20090;-59
2022/08/03 06:31:51;;;;;;;6.32;1.33;;;21.50;99.90;;;;;;5080416;28;20071;-57
2022/08/03 06:34:17;;;;;;;10.05;1.83;;;21.60;99.90;;;;;;5080333;28;20319;-58
2022/08/03 06:36:42;;;;;;;5.43;1.20;;;21.60;99.90;;;;;;5079806;28;20135;-58
2022/08/03 06:39:08;;;;;;;7.03;1.42;;;21.60;99.90;;;;;;5080247;28;20067;-59
2022/08/03 06:41:34;;;;;;;8.82;1.75;;;21.60;99.90;;;;;;5080150;28;20028;-58
2022/08/03 06:44:01;;;;;;;8.38;1.42;;;21.70;99.90;;;;;;5079420;28;20035;-59
2022/08/03 06:46:26;;;;;;;6.30;1.50;;;21.70;99.90;;;;;;5080422;28;20037;-59
2022/08/03 06:48:52;;;;;;;9.00;1.77;;;21.90;99.90;;;;;;5079348;28;20025;-60
2022/08/03 06:51:18;;;;;;;5.32;1.15;;;22.00;99.90;;;;;;5079247;28;20048;-60
2022/08/03 06:53:44;;;;;;;6.35;1.40;;;22.00;99.90;;;;;;5079883;28;20063;-60
2022/08/03 06:56:09;;;;;;;6.93;1.27;;;22.00;99.90;;;;;;5080497;28;20284;-59
2022/08/03 06:58:35;;;;;;;6.80;1.27;;;22.00;99.90;;;;;;5079715;28;20064;-59
2022/08/03 07:01:01;;;;;;;9.73;1.50;;;22.10;99.90;;;;;;5080485;28;20032;-60
2022/08/03 07:03:27;;;;;;;5.20;1.30;;;22.10;99.90;;;;;;5062791;28;20060;-60
2022/08/03 07:05:53;;;;;;;8.52;1.50;;;22.20;99.90;;;;;;5079819;28;20048;-59
2022/08/03 07:08:18;;;;;;;5.95;1.30;;;22.50;99.90;;;;;;5079692;28;20031;-59
2022/08/03 07:10:44;;;;;;;7.25;1.23;;;22.50;99.90;;;;;;5080304;28;20293;-60
2022/08/03 07:13:10;;;;;;;12.75;1.63;;;22.50;99.90;;;;;;5078905;28;20054;-59
2022/08/03 07:15:38;;;;;;;9.00;1.55;;;22.60;99.90;;;;;;5079680;28;20400;-59
2022/08/03 07:18:04;;;;;;;8.38;1.85;;;22.80;99.90;;;;;;5079478;28;20016;-59
2022/08/03 07:20:29;;;;;;;8.65;1.50;;;22.90;99.90;;;;;;5079168;28;20404;-60
2022/08/03 07:22:55;;;;;;;9.10;1.52;;;22.90;99.90;;;;;;5079468;28;20049;-60
2022/08/03 07:25:21;;;;;;;9.80;1.63;;;22.80;99.90;;;;;;5079439;28;20024;-59
2022/08/03 07:27:47;;;;;;;6.30;1.38;;;23.00;99.90;;;;;;5079694;28;20116;-60
2022/08/03 07:30:14;;;;;;;8.68;1.70;;;23.10;99.90;;;;;;5078985;28;20358;-59
2022/08/03 07:32:41;;;;;;;6.10;1.20;;;23.10;99.90;;;;;;5079282;28;20062;-60
2022/08/03 07:35:09;;;;;;;8.77;1.40;;;23.20;99.90;;;;;;5078501;28;20058;-60
2022/08/03 07:37:35;;;;;;;6.82;1.40;;;23.10;99.90;;;;;;5079041;28;20047;-60
2022/08/03 07:40:05;;;;;;;8.25;1.52;;;23.10;99.90;;;;;;5079221;28;20032;-63
2022/08/03 07:42:31;;;;;;;7.13;1.67;;;23.20;99.90;;;;;;5078443;28;20117;-60
2022/08/03 07:44:57;;;;;;;6.53;1.80;;;23.30;99.90;;;;;;5079044;28;20067;-57
2022/08/03 07:47:28;;;;;;;6.15;1.52;;;23.40;99.90;;;;;;5079194;28;20067;-61
2022/08/03 07:49:55;;;;;;;7.13;1.55;;;23.40;99.90;;;;;;5078867;28;20050;-58
2022/08/03 07:55:06;;;;;;;7.88;1.60;;;23.60;99.90;;;;;;5078928;28;20037;-58
2022/08/03 07:57:32;;;;;;;8.35;1.60;;;23.80;99.90;;;;;;5078559;28;20040;-58
2022/08/03 07:59:58;;;;;;;13.35;1.65;;;23.90;99.90;;;;;;5078075;28;20031;-60
2022/08/03 08:02:24;;;;;;;8.68;1.75;;;23.90;99.90;;;;;;5061368;28;20399;-60
2022/08/03 08:04:50;;;;;;;8.82;1.60;;;24.00;99.90;;;;;;5078615;28;20032;-60
2022/08/03 08:07:16;;;;;;;6.38;1.60;;;23.90;99.90;;;;;;5078621;28;20033;-61
2022/08/03 08:09:41;;;;;;;6.00;1.50;;;23.90;99.90;;;;;;5078511;28;20036;-60
2022/08/03 08:12:08;;;;;;;7.90;1.20;;;23.60;99.90;;;;;;5077783;28;20044;-59
2022/08/03 08:14:34;;;;;;;9.40;1.90;;;23.80;99.90;;;;;;5078446;28;20037;-60
2022/08/03 08:17:00;;;;;;;7.03;1.50;;;23.90;99.90;;;;;;5078352;28;20075;-61
2022/08/03 08:19:26;;;;;;;11.10;1.70;;;23.90;99.90;;;;;;5078250;28;20020;-61
2022/08/03 08:21:52;;;;;;;11.73;1.70;;;23.90;99.90;;;;;;5078325;28;20035;-61
2022/08/03 08:24:18;;;;;;;7.93;1.75;;;24.00;99.90;;;;;;5077448;28;20037;-60
2022/08/03 08:26:43;;;;;;;14.80;2.10;;;24.10;99.90;;;;;;5077778;28;20039;-57
2022/08/03 08:29:09;;;;;;;6.07;1.42;;;24.40;99.90;;;;;;5078093;28;20036;-62
2022/08/03 08:31:35;;;;;;;7.53;1.38;;;24.60;99.90;;;;;;5060951;28;20072;-61
2022/08/03 08:34:04;;;;;;;14.35;1.98;;;24.50;99.90;;;;;;5078095;28;20032;-58
2022/08/03 08:36:33;;;;;;;8.88;1.60;;;24.70;99.90;;;;;;5077999;28;20296;-59
2022/08/03 08:38:59;;;;;;;8.63;1.60;;;24.80;99.90;;;;;;5077852;28;20127;-59
2022/08/03 08:41:26;;;;;;;9.00;1.77;;;24.90;99.90;;;;;;5077166;28;20161;-59
2022/08/03 08:43:53;;;;;;;12.82;1.90;;;24.80;99.90;;;;;;5077758;28;20058;-59
2022/08/03 08:46:19;;;;;;;10.15;1.77;;;24.80;99.90;;;;;;5077826;28;20024;-59
2022/08/03 08:48:47;;;;;;;10.35;1.70;;;24.70;99.90;;;;;;5077729;28;20040;-59
2022/08/03 08:51:15;;;;;;;10.55;2.10;;;24.80;99.90;;;;;;5077645;28;20438;-61
2022/08/03 08:53:46;;;;;;;11.65;1.83;;;24.90;99.90;;;;;;5077154;28;20032;-59
2022/08/03 08:56:15;;;;;;;8.48;1.90;;;25.00;99.90;;;;;;5077553;28;20036;-60
2022/08/03 08:58:45;;;;;;;9.30;2.00;;;25.00;99.90;;;;;;5076671;28;20052;-59
2022/08/03 09:01:11;;;;;;;10.15;1.80;;;25.10;99.90;;;;;;5077644;28;20032;-58
2022/08/03 09:03:37;;;;;;;7.97;1.90;;;25.30;99.90;;;;;;5077496;28;20387;-59
2022/08/03 09:06:03;;;;;;;8.65;2.08;;;25.40;99.90;;;;;;5077594;28;20292;-59
2022/08/03 09:08:31;;;;;;;7.38;1.52;;;25.50;99.90;;;;;;5060157;28;20033;-59
2022/08/03 09:10:57;;;;;;;8.70;2.00;;;25.50;99.90;;;;;;5077348;28;20036;-60
2022/08/03 09:13:23;;;;;;;12.05;2.25;;;25.50;99.90;;;;;;5077296;28;20372;-61
2022/08/03 09:16:13;;;;;;;16.48;2.00;;;25.40;99.90;;;;;;5077237;28;20051;-61
2022/08/03 09:18:44;;;;;;;9.60;1.75;;;25.30;99.90;;;;;;5077176;28;20040;-61
2022/08/03 09:21:28;;;;;;;8.45;1.35;;;25.50;99.90;;;;;;5077341;28;20037;-60
2022/08/03 09:23:55;;;;;;;9.82;2.05;;;25.80;99.90;;;;;;5077051;28;20032;-59
2022/08/03 09:26:26;;;;;;;7.03;1.38;;;26.10;99.90;;;;;;5077140;28;20103;-61
2022/08/03 09:29:07;;;;;;;8.30;1.40;;;26.00;99.90;;;;;;5077154;28;20036;-60
2022/08/03 09:31:35;;;;;;;8.43;1.35;;;25.90;99.90;;;;;;5077622;28;20040;-61
2022/08/03 09:34:04;;;;;;;9.80;1.80;;;26.00;99.90;;;;;;5077117;28;20445;-61
2022/08/03 09:36:42;;;;;;;8.32;1.60;;;26.10;99.90;;;;;;5077595;28;20028;-60
2022/08/03 09:39:14;;;;;;;9.52;1.80;;;26.30;99.90;;;;;;5076894;28;20028;-58
2022/08/03 09:41:45;;;;;;;8.15;1.50;;;26.50;99.90;;;;;;5076419;28;20032;-59
2022/08/03 09:44:11;;;;;;;10.93;1.77;;;26.70;99.90;;;;;;5077183;28;20044;-61
2022/08/03 09:46:51;;;;;;;8.30;1.73;;;26.40;99.90;;;;;;5077360;28;20032;-59
2022/08/03 09:49:17;;;;;;;11.15;2.00;;;26.50;99.90;;;;;;5077061;28;20352;-59
2022/08/03 09:51:44;;;;;;;8.95;1.70;;;26.70;99.90;;;;;;5076904;28;20167;-58
2022/08/03 09:54:10;;;;;;;10.48;1.70;;;26.60;99.90;;;;;;5076849;28;20289;-59
2022/08/03 09:56:44;;;;;;;6.28;1.30;;;26.70;99.90;;;;;;5077081;28;20028;-61
2022/08/03 09:59:11;;;;;;;10.70;1.33;;;26.50;99.90;;;;;;5076774;28;20037;-60
2022/08/03 10:01:40;;;;;;;7.15;1.52;;;26.60;99.90;;;;;;5077338;28;20380;-59
2022/08/03 10:04:12;;;;;;;8.52;1.25;;;26.90;99.90;;;;;;5076758;28;20032;-60
2022/08/03 10:06:38;;;;;;;5.95;1.30;;;27.20;99.90;;;;;;5076834;28;20040;-60
2022/08/03 10:09:08;;;;;;;13.52;1.55;;;27.30;99.90;;;;;;5076086;28;20040;-59
2022/08/03 10:11:36;;;;;;;10.73;1.35;;;27.30;99.90;;;;;;5076619;28;20067;-59
2022/08/03 10:14:08;;;;;;;8.73;1.50;;;27.30;99.90;;;;;;5076566;28;20039;-60
2022/08/03 10:16:36;;;;;;;5.82;1.33;;;27.30;99.90;;;;;;5075936;28;20032;-58
2022/08/03 10:19:05;;;;;;;7.57;1.60;;;27.40;99.90;;;;;;5076660;28;20331;-59
2022/08/03 10:21:37;;;;;;;6.30;1.40;;;27.50;99.90;;;;;;5076601;28;20039;-60
2022/08/03 10:24:08;;;;;;;7.07;1.58;;;27.70;99.90;;;;;;5076582;28;20343;-59
2022/08/03 10:26:43;;;;;;;7.35;1.67;;;28.00;99.90;;;;;;5076506;28;20056;-60
2022/08/03 10:29:13;;;;;;;6.22;1.40;;;28.30;99.90;;;;;;5076422;28;20107;-59
2022/08/03 10:31:43;;;;;;;4.57;1.25;;;28.20;99.90;;;;;;5076527;28;20032;-58
2022/08/03 10:34:25;;;;;;;4.05;1.10;;;28.40;99.90;;;;;;5076336;28;20447;-60
2022/08/03 10:36:54;;;;;;;7.82;1.20;;;28.20;99.90;;;;;;5076916;28;20035;-59
2022/08/03 10:39:22;;;;;;;5.93;1.23;;;28.40;99.90;;;;;;5076358;28;20043;-63
2022/08/03 10:41:50;;;;;;;6.07;1.20;;;28.60;99.90;;;;;;5076580;28;20447;-59
2022/08/03 10:44:23;;;;;;;8.93;1.40;;;28.70;99.90;;;;;;5075526;28;20083;-62
2022/08/03 10:46:49;;;;;;;9.27;1.17;;;28.90;99.90;;;;;;5076374;28;20052;-63
2022/08/03 10:49:18;;;;;;;8.05;1.52;;;29.10;99.90;;;;;;5075899;28;20103;-59
2022/08/03 10:51:45;;;;;;;5.22;1.13;;;29.10;99.90;;;;;;5076288;28;20093;-59
2022/08/03 10:54:36;;;;;;;5.93;1.17;;;28.70;99.90;;;;;;5058866;28;20414;-59
2022/08/03 10:59:47;;;;;;;5.65;1.08;;;29.10;99.90;;;;;;5076179;28;20035;-59
2022/08/03 11:02:14;;;;;;;11.40;1.30;;;29.50;99.90;;;;;;5076138;28;20111;-59
2022/08/03 11:04:40;;;;;;;5.60;1.00;;;30.30;99.90;;;;;;5076004;28;20036;-59
2022/08/03 11:07:16;;;;;;;4.32;0.95;;;30.70;99.90;;;;;;5079735;28;20025;-59
2022/08/03 11:09:47;;;;;;;5.28;0.93;;;31.90;99.90;;;;;;5079668;28;20070;-60
2022/08/03 11:12:31;;;;;;;6.65;1.25;;;32.80;99.90;;;;;;5079649;28;20071;-60
2022/08/03 11:14:59;;;;;;;6.60;1.15;;;33.80;99.90;;;;;;5080023;28;20273;-57
2022/08/03 11:17:25;;;;;;;4.18;1.05;;;33.90;99.90;;;;;;5078957;28;20485;-58
2022/08/03 11:19:52;;;;;;;7.28;1.40;;;34.60;99.90;;;;;;5079448;28;20115;-58
2022/08/03 11:22:19;;;;;;;4.80;1.13;;;33.30;99.90;;;;;;5079356;28;20037;-58
2022/08/03 11:24:46;;;;;;;2.60;0.98;;;33.10;99.90;;;;;;5079376;28;20024;-58
2022/08/03 11:27:18;;;;;;;6.20;1.10;;;34.10;99.90;;;;;;5078555;28;20036;-58
2022/08/03 11:29:54;;;;;;;;;;;34.40;99.90;;;;;;5078817;28;20097;-57
2022/08/03 11:32:40;;;;;;;7.22;1.20;;;33.80;99.90;;;;;;5078625;28;19978;-58
2022/08/03 11:35:22;;;;;;;4.53;0.90;;;33.10;99.90;;;;;;5078739;28;20033;-59
2022/08/03 11:37:57;;;;;;;6.95;1.17;;;33.10;99.90;;;;;;5079109;28;20040;-58
2022/08/03 11:40:36;;;;;;;4.95;0.82;;;34.50;99.90;;;;;;5078978;28;20111;-59
2022/08/03 11:43:04;;;;;;;7.38;1.00;;;36.30;99.90;;;;;;5079103;28;20131;-59
2022/08/03 11:45:30;;;;;;;7.95;1.40;;;35.10;99.90;;;;;;5078996;28;20266;-58
2022/08/03 11:47:58;;;;;;;4.68;1.13;;;36.30;99.90;;;;;;5078252;28;20044;-59
2022/08/03 11:50:24;;;;;;;4.55;0.98;;;37.10;98.60;;;;;;5078885;28;20105;-58
2022/08/03 11:52:50;;;;;;;6.13;1.10;;;37.10;97.70;;;;;;5078119;28;20032;-58
2022/08/03 11:55:20;;;;;;;6.30;1.10;;;36.40;96.50;;;;;;5078039;28;20032;-59
2022/08/03 11:57:47;;;;;;;3.28;1.10;;;37.50;94.80;;;;;;5078683;28;20124;-59
2022/08/03 12:00:30;;;;;;;3.83;0.90;;;37.90;93.70;;;;;;5078761;28;20076;-59
2022/08/03 12:03:05;;;;;;;5.38;1.20;;;37.20;93.60;;;;;;5078741;28;20024;-59
2022/08/03 12:05:35;;;;;;;8.10;0.90;;;37.50;91.70;;;;;;5078669;28;20021;-59
2022/08/03 12:08:01;;;;;;;4.10;0.95;;;37.20;91.10;;;;;;5078519;28;20040;-59
2022/08/03 12:10:27;;;;;;;8.30;0.90;;;36.40;92.30;;;;;;5077828;28;20044;-60
2022/08/03 12:13:00;;;;;;;4.70;0.90;;;36.70;91.80;;;;;;5078526;28;20377;-59
2022/08/03 12:15:32;;;;;;;3.58;1.38;;;38.10;90.40;;;;;;5077794;28;20032;-60
2022/08/03 12:17:59;;;;;;;6.03;1.20;;;39.80;86.40;;;;;;5078354;28;20298;-59
2022/08/03 12:20:28;;;;;;;3.42;1.00;;;40.50;80.10;;;;;;5078390;28;20074;-64
2022/08/03 12:22:54;;;;;;;2.47;0.95;;;39.40;80.90;;;;;;5078363;28;20074;-59
2022/08/03 12:25:22;;;;;;;5.93;1.02;;;36.30;88.00;;;;;;5078231;28;20397;-59
2022/08/03 12:27:49;;;;;;;4.55;0.90;;;35.90;90.30;;;;;;5078243;28;20032;-59
2022/08/03 12:30:15;;;;;;;7.50;1.00;;;37.00;87.50;;;;;;5078089;28;20040;-59
2022/08/03 12:32:42;;;;;;;5.25;0.80;;;38.40;82.90;;;;;;5077308;28;20396;-60
2022/08/03 12:35:09;;;;;;;2.78;0.75;;;36.90;86.20;;;;;;5077998;28;20115;-61
2022/08/03 12:37:35;;;;;;;4.45;0.80;;;36.60;86.70;;;;;;5077888;28;20066;-60
2022/08/03 12:40:05;;;;;;;5.55;0.98;;;37.80;85.10;;;;;;5078022;28;20070;-59
2022/08/03 12:42:36;;;;;;;1.80;0.70;;;36.80;84.70;;;;;;5077996;28;20020;-58
2022/08/03 12:45:22;;;;;;;4.43;0.80;;;34.60;91.00;;;;;;5077915;28;20033;-59
2022/08/03 12:48:01;;;;;;;5.65;1.15;;;34.10;91.90;;;;;;5077870;28;20025;-60
2022/08/03 12:50:32;;;;;;;3.88;0.80;;;35.30;90.80;;;;;;5077685;28;20036;-59
2022/08/03 12:52:59;;;;;;;7.17;0.80;;;37.60;88.00;;;;;;5077784;28;20025;-59
2022/08/03 12:55:34;;;;;;;4.07;0.88;;;39.70;79.80;;;;;;5077711;28;20276;-59
2022/08/03 12:58:01;;;;;;;5.10;0.80;;;39.50;77.00;;;;;;5077462;28;20044;-59
2022/08/03 13:00:29;;;;;;;4.03;0.80;;;38.00;80.40;;;;;;5077535;28;20028;-58
2022/08/03 13:03:06;;;;;;;4.82;0.80;;;38.70;78.30;;;;;;5077458;28;20032;-59
2022/08/03 13:05:44;;;;;;;3.95;0.70;;;38.60;76.10;;;;;;5077483;28;20078;-60